sensor_id;sensor_type;location;lat;lon;timestamp;P1;durP1;ratioP1;P2;durP2;ratioP2
12385;SDS011;6257;57.634;18.310;2022-07-30T00:02:10;4.03;;;2.50;;
12385;SDS011;6257;57.634;18.310;2022-07-30T00:04:37;4.67;;;2.90;;
12385;SDS011;6257;57.634;18.310;2022-07-30T00:07:04;4.53;;;2.30;;
12385;SDS011;6257;57.634;18.310;2022-07-30T00:09:31;2.60;;;2.40;;
12385;SDS011;6257;57.634;18.310;2022-07-30T00:11:58;6.10;;;2.40;;
12385;SDS011;6257;57.634;18.310;2022-07-30T00:14:27;4.10;;;2.70;;
12385;SDS011;6257;57.634;18.310;2022-07-30T00:16:54;4.33;;;2.80;;
12385;SDS011;6257;57.634;18.310;2022-07-30T00:19:22;3.77;;;2.80;;
12385;SDS011;6257;57.634;18.310;2022-07-30T00:21:49;4.07;;;2.47;;
12385;SDS011;6257;57.634;18.310;2022-07-30T00:24:16;4.20;;;2.50;;
12385;SDS011;6257;57.634;18.310;2022-07-30T00:26:43;3.13;;;2.30;;
12385;SDS011;6257;57.634;18.310;2022-07-30T00:29:10;3.13;;;2.20;;
12385;SDS011;6257;57.634;18.310;2022-07-30T00:31:38;2.73;;;2.00;;
12385;SDS011;6257;57.634;18.310;2022-07-30T00:34:06;5.87;;;2.30;;
12385;SDS011;6257;57.634;18.310;2022-07-30T00:36:33;3.10;;;2.03;;
12385;SDS011;6257;57.634;18.310;2022-07-30T00:39:00;3.03;;;2.10;;
12385;SDS011;6257;57.634;18.310;2022-07-30T00:41:27;5.23;;;2.33;;
12385;SDS011;6257;57.634;18.310;2022-07-30T00:43:54;3.13;;;2.00;;
12385;SDS011;6257;57.634;18.310;2022-07-30T00:46:22;4.80;;;2.63;;
12385;SDS011;6257;57.634;18.310;2022-07-30T00:48:50;3.47;;;2.40;;
12385;SDS011;6257;57.634;18.310;2022-07-30T00:51:17;3.27;;;2.30;;
12385;SDS011;6257;57.634;18.310;2022-07-30T00:53:44;2.93;;;2.30;;
12385;SDS011;6257;57.634;18.310;2022-07-30T00:56:12;3.87;;;2.30;;
12385;SDS011;6257;57.634;18.310;2022-07-30T00:58:39;3.40;;;2.20;;
12385;SDS011;6257;57.634;18.310;2022-07-30T01:01:06;2.50;;;2.30;;
12385;SDS011;6257;57.634;18.310;2022-07-30T01:03:33;4.37;;;2.70;;
12385;SDS011;6257;57.634;18.310;2022-07-30T01:06:03;4.73;;;2.90;;
12385;SDS011;6257;57.634;18.310;2022-07-30T01:08:30;3.43;;;2.53;;
12385;SDS011;6257;57.634;18.310;2022-07-30T01:10:57;2.83;;;2.07;;
12385;SDS011;6257;57.634;18.310;2022-07-30T01:13:25;3.00;;;2.07;;
12385;SDS011;6257;57.634;18.310;2022-07-30T01:15:52;3.30;;;2.20;;
12385;SDS011;6257;57.634;18.310;2022-07-30T01:18:19;2.77;;;2.10;;
12385;SDS011;6257;57.634;18.310;2022-07-30T01:21:11;4.60;;;2.50;;
12385;SDS011;6257;57.634;18.310;2022-07-30T01:23:42;6.10;;;2.40;;
12385;SDS011;6257;57.634;18.310;2022-07-30T01:26:15;4.93;;;2.33;;
12385;SDS011;6257;57.634;18.310;2022-07-30T01:28:44;4.60;;;2.50;;
12385;SDS011;6257;57.634;18.310;2022-07-30T01:31:15;3.20;;;2.60;;
12385;SDS011;6257;57.634;18.310;2022-07-30T01:33:45;2.50;;;2.10;;
12385;SDS011;6257;57.634;18.310;2022-07-30T01:36:15;3.63;;;2.50;;
12385;SDS011;6257;57.634;18.310;2022-07-30T01:38:46;5.77;;;2.40;;
12385;SDS011;6257;57.634;18.310;2022-07-30T01:41:16;3.13;;;2.20;;
12385;SDS011;6257;57.634;18.310;2022-07-30T01:43:44;4.73;;;2.57;;
12385;SDS011;6257;57.634;18.310;2022-07-30T01:46:13;3.03;;;2.30;;
12385;SDS011;6257;57.634;18.310;2022-07-30T01:48:41;4.30;;;2.20;;
12385;SDS011;6257;57.634;18.310;2022-07-30T01:51:11;3.40;;;2.20;;
12385;SDS011;6257;57.634;18.310;2022-07-30T01:53:39;2.97;;;2.57;;
12385;SDS011;6257;57.634;18.310;2022-07-30T01:56:10;6.43;;;2.60;;
12385;SDS011;6257;57.634;18.310;2022-07-30T01:58:41;4.80;;;2.50;;
12385;SDS011;6257;57.634;18.310;2022-07-30T02:01:11;3.87;;;2.60;;
12385;SDS011;6257;57.634;18.310;2022-07-30T02:03:39;4.07;;;2.40;;
12385;SDS011;6257;57.634;18.310;2022-07-30T02:06:07;3.23;;;2.40;;
12385;SDS011;6257;57.634;18.310;2022-07-30T02:08:39;3.23;;;2.23;;
12385;SDS011;6257;57.634;18.310;2022-07-30T02:11:09;2.57;;;2.20;;
12385;SDS011;6257;57.634;18.310;2022-07-30T02:13:41;3.60;;;2.53;;
12385;SDS011;6257;57.634;18.310;2022-07-30T02:16:14;2.93;;;2.63;;
12385;SDS011;6257;57.634;18.310;2022-07-30T02:18:47;4.03;;;2.43;;
12385;SDS011;6257;57.634;18.310;2022-07-30T02:21:21;4.70;;;2.23;;
12385;SDS011;6257;57.634;18.310;2022-07-30T02:23:51;5.90;;;2.80;;
12385;SDS011;6257;57.634;18.310;2022-07-30T02:26:21;4.70;;;2.80;;
12385;SDS011;6257;57.634;18.310;2022-07-30T02:28:53;3.80;;;2.27;;
12385;SDS011;6257;57.634;18.310;2022-07-30T02:31:24;5.00;;;2.10;;
12385;SDS011;6257;57.634;18.310;2022-07-30T02:33:54;4.33;;;2.40;;
12385;SDS011;6257;57.634;18.310;2022-07-30T02:36:24;2.50;;;2.30;;
12385;SDS011;6257;57.634;18.310;2022-07-30T02:38:53;5.40;;;2.87;;
12385;SDS011;6257;57.634;18.310;2022-07-30T02:41:22;3.03;;;2.07;;
12385;SDS011;6257;57.634;18.310;2022-07-30T02:43:53;5.00;;;2.40;;
12385;SDS011;6257;57.634;18.310;2022-07-30T02:46:22;4.67;;;2.30;;
12385;SDS011;6257;57.634;18.310;2022-07-30T02:48:51;2.37;;;2.13;;
12385;SDS011;6257;57.634;18.310;2022-07-30T02:51:20;4.07;;;2.40;;
12385;SDS011;6257;57.634;18.310;2022-07-30T02:53:48;6.10;;;2.53;;
12385;SDS011;6257;57.634;18.310;2022-07-30T02:56:17;3.03;;;2.00;;
12385;SDS011;6257;57.634;18.310;2022-07-30T02:58:46;3.77;;;2.30;;
12385;SDS011;6257;57.634;18.310;2022-07-30T03:01:17;4.23;;;2.23;;
12385;SDS011;6257;57.634;18.310;2022-07-30T03:03:47;3.07;;;2.10;;
12385;SDS011;6257;57.634;18.310;2022-07-30T03:06:14;3.07;;;2.33;;
12385;SDS011;6257;57.634;18.310;2022-07-30T03:08:44;4.17;;;2.50;;
12385;SDS011;6257;57.634;18.310;2022-07-30T03:11:12;5.73;;;2.50;;
12385;SDS011;6257;57.634;18.310;2022-07-30T03:13:41;3.07;;;2.33;;
12385;SDS011;6257;57.634;18.310;2022-07-30T03:16:09;3.43;;;2.43;;
12385;SDS011;6257;57.634;18.310;2022-07-30T03:18:39;3.80;;;2.60;;
12385;SDS011;6257;57.634;18.310;2022-07-30T03:21:09;3.70;;;2.67;;
12385;SDS011;6257;57.634;18.310;2022-07-30T03:23:38;3.63;;;2.30;;
12385;SDS011;6257;57.634;18.310;2022-07-30T03:26:07;3.37;;;2.47;;
12385;SDS011;6257;57.634;18.310;2022-07-30T03:28:37;3.70;;;2.40;;
12385;SDS011;6257;57.634;18.310;2022-07-30T03:31:05;2.87;;;2.30;;
12385;SDS011;6257;57.634;18.310;2022-07-30T03:33:34;2.73;;;2.33;;
12385;SDS011;6257;57.634;18.310;2022-07-30T03:36:05;2.83;;;2.23;;
12385;SDS011;6257;57.634;18.310;2022-07-30T03:38:34;4.07;;;2.67;;
12385;SDS011;6257;57.634;18.310;2022-07-30T03:41:03;3.10;;;2.50;;
12385;SDS011;6257;57.634;18.310;2022-07-30T03:43:31;2.87;;;2.27;;
12385;SDS011;6257;57.634;18.310;2022-07-30T03:46:00;4.37;;;2.50;;
12385;SDS011;6257;57.634;18.310;2022-07-30T03:48:29;3.27;;;2.60;;
12385;SDS011;6257;57.634;18.310;2022-07-30T03:50:58;2.73;;;2.53;;
12385;SDS011;6257;57.634;18.310;2022-07-30T03:53:29;2.60;;;2.37;;
12385;SDS011;6257;57.634;18.310;2022-07-30T03:55:57;5.03;;;2.60;;
12385;SDS011;6257;57.634;18.310;2022-07-30T03:58:25;2.70;;;2.50;;
12385;SDS011;6257;57.634;18.310;2022-07-30T04:00:53;4.70;;;2.70;;
12385;SDS011;6257;57.634;18.310;2022-07-30T04:03:23;2.90;;;2.67;;
12385;SDS011;6257;57.634;18.310;2022-07-30T04:05:51;4.03;;;2.60;;
12385;SDS011;6257;57.634;18.310;2022-07-30T04:08:18;4.00;;;2.47;;
12385;SDS011;6257;57.634;18.310;2022-07-30T04:10:47;4.40;;;2.93;;
12385;SDS011;6257;57.634;18.310;2022-07-30T04:13:15;2.83;;;2.50;;
12385;SDS011;6257;57.634;18.310;2022-07-30T04:15:44;2.97;;;2.30;;
12385;SDS011;6257;57.634;18.310;2022-07-30T04:18:16;2.33;;;2.10;;
12385;SDS011;6257;57.634;18.310;2022-07-30T04:20:45;2.67;;;2.13;;
12385;SDS011;6257;57.634;18.310;2022-07-30T04:23:14;3.43;;;2.40;;
12385;SDS011;6257;57.634;18.310;2022-07-30T04:25:41;2.50;;;1.90;;
12385;SDS011;6257;57.634;18.310;2022-07-30T04:28:11;2.87;;;2.10;;
12385;SDS011;6257;57.634;18.310;2022-07-30T04:30:39;3.37;;;2.10;;
12385;SDS011;6257;57.634;18.310;2022-07-30T04:33:06;3.33;;;1.87;;
12385;SDS011;6257;57.634;18.310;2022-07-30T04:35:34;3.80;;;2.00;;
12385;SDS011;6257;57.634;18.310;2022-07-30T04:38:01;3.10;;;1.93;;
12385;SDS011;6257;57.634;18.310;2022-07-30T04:40:29;2.80;;;1.50;;
12385;SDS011;6257;57.634;18.310;2022-07-30T04:42:56;2.10;;;1.90;;
12385;SDS011;6257;57.634;18.310;2022-07-30T04:45:25;2.03;;;1.50;;
12385;SDS011;6257;57.634;18.310;2022-07-30T04:47:52;1.93;;;1.50;;
12385;SDS011;6257;57.634;18.310;2022-07-30T04:50:20;4.40;;;1.50;;
12385;SDS011;6257;57.634;18.310;2022-07-30T04:52:48;4.80;;;1.57;;
12385;SDS011;6257;57.634;18.310;2022-07-30T04:55:17;2.50;;;1.40;;
12385;SDS011;6257;57.634;18.310;2022-07-30T04:57:47;4.27;;;1.27;;
12385;SDS011;6257;57.634;18.310;2022-07-30T05:00:15;1.97;;;1.50;;
12385;SDS011;6257;57.634;18.310;2022-07-30T05:02:44;3.40;;;1.30;;
12385;SDS011;6257;57.634;18.310;2022-07-30T05:05:13;1.90;;;1.27;;
12385;SDS011;6257;57.634;18.310;2022-07-30T05:07:41;1.87;;;1.10;;
12385;SDS011;6257;57.634;18.310;2022-07-30T05:10:09;1.70;;;1.10;;
12385;SDS011;6257;57.634;18.310;2022-07-30T05:12:37;2.53;;;1.33;;
12385;SDS011;6257;57.634;18.310;2022-07-30T05:15:05;1.77;;;1.20;;
12385;SDS011;6257;57.634;18.310;2022-07-30T05:17:33;1.87;;;1.10;;
12385;SDS011;6257;57.634;18.310;2022-07-30T05:20:02;1.20;;;1.10;;
12385;SDS011;6257;57.634;18.310;2022-07-30T05:22:30;2.50;;;1.20;;
12385;SDS011;6257;57.634;18.310;2022-07-30T05:24:57;2.33;;;1.10;;
12385;SDS011;6257;57.634;18.310;2022-07-30T05:27:24;3.33;;;1.20;;
12385;SDS011;6257;57.634;18.310;2022-07-30T05:29:51;1.23;;;1.10;;
12385;SDS011;6257;57.634;18.310;2022-07-30T05:32:18;1.50;;;0.90;;
12385;SDS011;6257;57.634;18.310;2022-07-30T05:34:46;3.23;;;1.10;;
12385;SDS011;6257;57.634;18.310;2022-07-30T05:37:14;1.70;;;1.00;;
12385;SDS011;6257;57.634;18.310;2022-07-30T05:39:41;2.63;;;1.03;;
12385;SDS011;6257;57.634;18.310;2022-07-30T05:42:09;3.00;;;1.00;;
12385;SDS011;6257;57.634;18.310;2022-07-30T05:44:36;2.60;;;1.00;;
12385;SDS011;6257;57.634;18.310;2022-07-30T05:47:03;2.63;;;0.90;;
12385;SDS011;6257;57.634;18.310;2022-07-30T05:49:30;0.60;;;0.60;;
12385;SDS011;6257;57.634;18.310;2022-07-30T05:51:57;1.87;;;0.80;;
12385;SDS011;6257;57.634;18.310;2022-07-30T05:54:26;1.20;;;0.73;;
12385;SDS011;6257;57.634;18.310;2022-07-30T05:56:53;1.60;;;0.63;;
12385;SDS011;6257;57.634;18.310;2022-07-30T05:59:20;1.00;;;0.70;;
12385;SDS011;6257;57.634;18.310;2022-07-30T06:01:47;0.77;;;0.60;;
12385;SDS011;6257;57.634;18.310;2022-07-30T06:04:14;0.60;;;0.60;;
12385;SDS011;6257;57.634;18.310;2022-07-30T06:06:41;1.23;;;0.80;;
12385;SDS011;6257;57.634;18.310;2022-07-30T06:09:08;1.23;;;0.60;;
12385;SDS011;6257;57.634;18.310;2022-07-30T06:11:36;0.80;;;0.70;;
12385;SDS011;6257;57.634;18.310;2022-07-30T06:14:04;1.00;;;0.60;;
12385;SDS011;6257;57.634;18.310;2022-07-30T06:16:31;1.50;;;0.70;;
12385;SDS011;6257;57.634;18.310;2022-07-30T06:18:58;0.73;;;0.67;;
12385;SDS011;6257;57.634;18.310;2022-07-30T06:21:25;1.00;;;0.70;;
12385;SDS011;6257;57.634;18.310;2022-07-30T06:23:52;1.33;;;0.63;;
12385;SDS011;6257;57.634;18.310;2022-07-30T06:26:19;0.70;;;0.60;;
12385;SDS011;6257;57.634;18.310;2022-07-30T06:28:47;1.40;;;0.63;;
12385;SDS011;6257;57.634;18.310;2022-07-30T06:31:14;1.50;;;0.60;;
12385;SDS011;6257;57.634;18.310;2022-07-30T06:33:42;1.23;;;0.60;;
12385;SDS011;6257;57.634;18.310;2022-07-30T06:36:09;3.03;;;0.70;;
12385;SDS011;6257;57.634;18.310;2022-07-30T06:38:36;0.83;;;0.70;;
12385;SDS011;6257;57.634;18.310;2022-07-30T06:41:03;2.20;;;0.60;;
12385;SDS011;6257;57.634;18.310;2022-07-30T06:43:30;1.57;;;0.50;;
12385;SDS011;6257;57.634;18.310;2022-07-30T06:45:58;1.70;;;0.60;;
12385;SDS011;6257;57.634;18.310;2022-07-30T06:48:25;0.70;;;0.60;;
12385;SDS011;6257;57.634;18.310;2022-07-30T06:50:52;0.80;;;0.60;;
12385;SDS011;6257;57.634;18.310;2022-07-30T06:53:19;1.93;;;0.60;;
12385;SDS011;6257;57.634;18.310;2022-07-30T06:55:46;1.17;;;0.60;;
12385;SDS011;6257;57.634;18.310;2022-07-30T06:58:15;1.13;;;0.60;;
12385;SDS011;6257;57.634;18.310;2022-07-30T07:00:42;1.13;;;0.63;;
12385;SDS011;6257;57.634;18.310;2022-07-30T07:03:11;1.57;;;0.77;;
12385;SDS011;6257;57.634;18.310;2022-07-30T07:05:38;1.43;;;0.60;;
12385;SDS011;6257;57.634;18.310;2022-07-30T07:08:05;0.70;;;0.70;;
12385;SDS011;6257;57.634;18.310;2022-07-30T07:10:32;1.90;;;0.70;;
12385;SDS011;6257;57.634;18.310;2022-07-30T07:12:59;1.60;;;0.70;;
12385;SDS011;6257;57.634;18.310;2022-07-30T07:15:26;2.00;;;0.60;;
12385;SDS011;6257;57.634;18.310;2022-07-30T07:17:53;1.00;;;0.70;;
12385;SDS011;6257;57.634;18.310;2022-07-30T07:20:22;0.80;;;0.70;;
12385;SDS011;6257;57.634;18.310;2022-07-30T07:22:49;0.67;;;0.60;;
12385;SDS011;6257;57.634;18.310;2022-07-30T07:25:16;0.80;;;0.60;;
12385;SDS011;6257;57.634;18.310;2022-07-30T07:27:43;1.73;;;0.73;;
12385;SDS011;6257;57.634;18.310;2022-07-30T07:30:11;0.70;;;0.70;;
12385;SDS011;6257;57.634;18.310;2022-07-30T07:32:38;0.93;;;0.70;;
12385;SDS011;6257;57.634;18.310;2022-07-30T07:35:05;1.67;;;0.70;;
12385;SDS011;6257;57.634;18.310;2022-07-30T07:37:35;2.30;;;0.70;;
12385;SDS011;6257;57.634;18.310;2022-07-30T07:40:02;0.67;;;0.57;;
12385;SDS011;6257;57.634;18.310;2022-07-30T07:42:30;1.03;;;0.70;;
12385;SDS011;6257;57.634;18.310;2022-07-30T07:44:57;0.90;;;0.60;;
12385;SDS011;6257;57.634;18.310;2022-07-30T07:47:24;0.90;;;0.70;;
12385;SDS011;6257;57.634;18.310;2022-07-30T07:49:53;0.97;;;0.70;;
12385;SDS011;6257;57.634;18.310;2022-07-30T07:52:20;0.67;;;0.60;;
12385;SDS011;6257;57.634;18.310;2022-07-30T07:54:49;0.60;;;0.60;;
12385;SDS011;6257;57.634;18.310;2022-07-30T07:57:16;1.93;;;0.80;;
12385;SDS011;6257;57.634;18.310;2022-07-30T07:59:43;0.93;;;0.60;;
12385;SDS011;6257;57.634;18.310;2022-07-30T08:02:10;1.00;;;0.60;;
12385;SDS011;6257;57.634;18.310;2022-07-30T08:04:37;1.13;;;0.70;;
12385;SDS011;6257;57.634;18.310;2022-07-30T08:07:04;1.20;;;0.70;;
12385;SDS011;6257;57.634;18.310;2022-07-30T08:09:31;2.60;;;0.70;;
12385;SDS011;6257;57.634;18.310;2022-07-30T08:12:00;1.90;;;0.60;;
12385;SDS011;6257;57.634;18.310;2022-07-30T08:14:27;3.80;;;0.80;;
12385;SDS011;6257;57.634;18.310;2022-07-30T08:16:54;0.70;;;0.57;;
12385;SDS011;6257;57.634;18.310;2022-07-30T08:19:21;0.87;;;0.63;;
12385;SDS011;6257;57.634;18.310;2022-07-30T08:21:48;2.37;;;0.80;;
12385;SDS011;6257;57.634;18.310;2022-07-30T08:24:15;1.07;;;0.70;;
12385;SDS011;6257;57.634;18.310;2022-07-30T08:26:42;1.67;;;0.80;;
12385;SDS011;6257;57.634;18.310;2022-07-30T08:29:11;1.03;;;0.77;;
12385;SDS011;6257;57.634;18.310;2022-07-30T08:31:38;0.63;;;0.60;;
12385;SDS011;6257;57.634;18.310;2022-07-30T08:34:05;1.23;;;0.60;;
12385;SDS011;6257;57.634;18.310;2022-07-30T08:36:32;0.70;;;0.60;;
12385;SDS011;6257;57.634;18.310;2022-07-30T08:38:59;1.73;;;0.70;;
12385;SDS011;6257;57.634;18.310;2022-07-30T08:41:26;1.47;;;0.60;;
12385;SDS011;6257;57.634;18.310;2022-07-30T08:43:53;0.70;;;0.60;;
12385;SDS011;6257;57.634;18.310;2022-07-30T08:46:24;0.60;;;0.60;;
12385;SDS011;6257;57.634;18.310;2022-07-30T08:48:52;0.90;;;0.70;;
12385;SDS011;6257;57.634;18.310;2022-07-30T08:51:21;1.20;;;0.50;;
12385;SDS011;6257;57.634;18.310;2022-07-30T08:53:48;0.63;;;0.53;;
12385;SDS011;6257;57.634;18.310;2022-07-30T08:56:16;2.03;;;0.90;;
12385;SDS011;6257;57.634;18.310;2022-07-30T08:58:43;1.23;;;0.70;;
12385;SDS011;6257;57.634;18.310;2022-07-30T09:01:12;1.40;;;0.70;;
12385;SDS011;6257;57.634;18.310;2022-07-30T09:03:41;1.07;;;0.90;;
12385;SDS011;6257;57.634;18.310;2022-07-30T09:06:08;0.93;;;0.80;;
12385;SDS011;6257;57.634;18.310;2022-07-30T09:08:35;1.47;;;0.80;;
12385;SDS011;6257;57.634;18.310;2022-07-30T09:11:02;1.10;;;0.70;;
12385;SDS011;6257;57.634;18.310;2022-07-30T09:13:29;1.10;;;0.60;;
12385;SDS011;6257;57.634;18.310;2022-07-30T09:15:59;0.50;;;0.50;;
12385;SDS011;6257;57.634;18.310;2022-07-30T09:18:30;2.23;;;1.00;;
12385;SDS011;6257;57.634;18.310;2022-07-30T09:21:01;2.23;;;0.80;;
12385;SDS011;6257;57.634;18.310;2022-07-30T09:23:40;3.53;;;0.83;;
12385;SDS011;6257;57.634;18.310;2022-07-30T09:26:21;0.90;;;0.63;;
12385;SDS011;6257;57.634;18.310;2022-07-30T09:28:48;1.77;;;0.80;;
12385;SDS011;6257;57.634;18.310;2022-07-30T09:31:16;0.90;;;0.60;;
12385;SDS011;6257;57.634;18.310;2022-07-30T09:33:44;2.90;;;0.70;;
12385;SDS011;6257;57.634;18.310;2022-07-30T09:36:14;3.03;;;0.80;;
12385;SDS011;6257;57.634;18.310;2022-07-30T09:38:42;0.60;;;0.60;;
12385;SDS011;6257;57.634;18.310;2022-07-30T09:41:11;1.80;;;0.77;;
12385;SDS011;6257;57.634;18.310;2022-07-30T09:43:46;2.07;;;0.60;;
12385;SDS011;6257;57.634;18.310;2022-07-30T09:46:14;0.70;;;0.60;;
12385;SDS011;6257;57.634;18.310;2022-07-30T09:48:42;1.10;;;0.63;;
12385;SDS011;6257;57.634;18.310;2022-07-30T09:51:11;2.00;;;0.70;;
12385;SDS011;6257;57.634;18.310;2022-07-30T09:53:51;1.77;;;0.50;;
12385;SDS011;6257;57.634;18.310;2022-07-30T09:56:23;1.60;;;0.73;;
12385;SDS011;6257;57.634;18.310;2022-07-30T09:58:51;0.53;;;0.53;;
12385;SDS011;6257;57.634;18.310;2022-07-30T10:01:18;1.10;;;0.70;;
12385;SDS011;6257;57.634;18.310;2022-07-30T10:03:46;0.70;;;0.60;;
12385;SDS011;6257;57.634;18.310;2022-07-30T10:06:14;1.33;;;0.60;;
12385;SDS011;6257;57.634;18.310;2022-07-30T10:08:43;1.00;;;0.50;;
12385;SDS011;6257;57.634;18.310;2022-07-30T10:11:12;0.77;;;0.60;;
12385;SDS011;6257;57.634;18.310;2022-07-30T10:13:40;0.60;;;0.57;;
12385;SDS011;6257;57.634;18.310;2022-07-30T10:16:08;0.77;;;0.60;;
12385;SDS011;6257;57.634;18.310;2022-07-30T10:18:36;1.07;;;0.63;;
12385;SDS011;6257;57.634;18.310;2022-07-30T10:21:03;1.13;;;0.67;;
12385;SDS011;6257;57.634;18.310;2022-07-30T10:23:33;0.80;;;0.50;;
12385;SDS011;6257;57.634;18.310;2022-07-30T10:26:01;2.40;;;0.87;;
12385;SDS011;6257;57.634;18.310;2022-07-30T10:28:30;0.60;;;0.57;;
12385;SDS011;6257;57.634;18.310;2022-07-30T10:30:57;0.50;;;0.50;;
12385;SDS011;6257;57.634;18.310;2022-07-30T10:33:25;2.30;;;0.60;;
12385;SDS011;6257;57.634;18.310;2022-07-30T10:35:55;2.57;;;0.80;;
12385;SDS011;6257;57.634;18.310;2022-07-30T10:38:23;1.87;;;0.63;;
12385;SDS011;6257;57.634;18.310;2022-07-30T10:40:59;1.10;;;0.60;;
12385;SDS011;6257;57.634;18.310;2022-07-30T10:43:36;0.73;;;0.67;;
12385;SDS011;6257;57.634;18.310;2022-07-30T10:46:30;1.87;;;0.70;;
12385;SDS011;6257;57.634;18.310;2022-07-30T10:49:09;1.03;;;0.63;;
12385;SDS011;6257;57.634;18.310;2022-07-30T10:51:44;2.50;;;0.70;;
12385;SDS011;6257;57.634;18.310;2022-07-30T10:57:04;1.50;;;0.70;;
12385;SDS011;6257;57.634;18.310;2022-07-30T11:05:36;0.50;;;0.50;;
12385;SDS011;6257;57.634;18.310;2022-07-30T11:10:53;2.63;;;0.70;;
12385;SDS011;6257;57.634;18.310;2022-07-30T11:13:47;1.20;;;0.50;;
12385;SDS011;6257;57.634;18.310;2022-07-30T11:16:15;0.70;;;0.60;;
12385;SDS011;6257;57.634;18.310;2022-07-30T11:19:03;0.70;;;0.60;;
12385;SDS011;6257;57.634;18.310;2022-07-30T11:21:32;0.70;;;0.70;;
12385;SDS011;6257;57.634;18.310;2022-07-30T11:24:00;1.17;;;0.60;;
12385;SDS011;6257;57.634;18.310;2022-07-30T11:26:45;0.60;;;0.60;;
12385;SDS011;6257;57.634;18.310;2022-07-30T11:37:57;1.03;;;0.60;;
12385;SDS011;6257;57.634;18.310;2022-07-30T11:40:26;1.43;;;0.80;;
12385;SDS011;6257;57.634;18.310;2022-07-30T11:45:49;1.17;;;0.53;;
12385;SDS011;6257;57.634;18.310;2022-07-30T11:48:18;1.40;;;0.60;;
12385;SDS011;6257;57.634;18.310;2022-07-30T11:50:46;1.70;;;0.60;;
12385;SDS011;6257;57.634;18.310;2022-07-30T11:53:14;0.70;;;0.70;;
12385;SDS011;6257;57.634;18.310;2022-07-30T11:55:43;0.60;;;0.57;;
12385;SDS011;6257;57.634;18.310;2022-07-30T12:01:00;0.80;;;0.60;;
12385;SDS011;6257;57.634;18.310;2022-07-30T12:03:29;0.67;;;0.50;;
12385;SDS011;6257;57.634;18.310;2022-07-30T12:06:01;0.80;;;0.50;;
12385;SDS011;6257;57.634;18.310;2022-07-30T12:08:37;1.63;;;0.60;;
12385;SDS011;6257;57.634;18.310;2022-07-30T12:11:06;0.70;;;0.60;;
12385;SDS011;6257;57.634;18.310;2022-07-30T12:13:33;0.87;;;0.40;;
12385;SDS011;6257;57.634;18.310;2022-07-30T12:16:07;0.80;;;0.60;;
12385;SDS011;6257;57.634;18.310;2022-07-30T12:18:35;1.53;;;0.60;;
12385;SDS011;6257;57.634;18.310;2022-07-30T12:21:03;0.83;;;0.60;;
12385;SDS011;6257;57.634;18.310;2022-07-30T12:23:32;1.43;;;0.50;;
12385;SDS011;6257;57.634;18.310;2022-07-30T12:25:59;0.40;;;0.40;;
12385;SDS011;6257;57.634;18.310;2022-07-30T12:28:28;1.13;;;0.70;;
12385;SDS011;6257;57.634;18.310;2022-07-30T12:30:57;1.00;;;0.70;;
12385;SDS011;6257;57.634;18.310;2022-07-30T12:33:27;0.90;;;0.60;;
12385;SDS011;6257;57.634;18.310;2022-07-30T12:35:55;0.97;;;0.80;;
12385;SDS011;6257;57.634;18.310;2022-07-30T12:38:24;0.60;;;0.60;;
12385;SDS011;6257;57.634;18.310;2022-07-30T12:40:52;1.93;;;0.60;;
12385;SDS011;6257;57.634;18.310;2022-07-30T12:46:08;0.80;;;0.60;;
12385;SDS011;6257;57.634;18.310;2022-07-30T12:48:37;0.80;;;0.50;;
12385;SDS011;6257;57.634;18.310;2022-07-30T12:51:14;1.53;;;0.60;;
12385;SDS011;6257;57.634;18.310;2022-07-30T12:53:41;0.80;;;0.50;;
12385;SDS011;6257;57.634;18.310;2022-07-30T12:56:09;1.50;;;0.50;;
12385;SDS011;6257;57.634;18.310;2022-07-30T12:58:37;0.47;;;0.47;;
12385;SDS011;6257;57.634;18.310;2022-07-30T13:01:04;0.63;;;0.50;;
12385;SDS011;6257;57.634;18.310;2022-07-30T13:03:31;0.80;;;0.60;;
12385;SDS011;6257;57.634;18.310;2022-07-30T13:06:11;1.60;;;0.63;;
12385;SDS011;6257;57.634;18.310;2022-07-30T13:08:46;0.67;;;0.57;;
12385;SDS011;6257;57.634;18.310;2022-07-30T13:11:18;1.30;;;0.70;;
12385;SDS011;6257;57.634;18.310;2022-07-30T13:13:47;0.90;;;0.60;;
12385;SDS011;6257;57.634;18.310;2022-07-30T13:16:15;0.50;;;0.50;;
12385;SDS011;6257;57.634;18.310;2022-07-30T13:18:43;1.10;;;0.53;;
12385;SDS011;6257;57.634;18.310;2022-07-30T13:21:12;0.77;;;0.50;;
12385;SDS011;6257;57.634;18.310;2022-07-30T13:23:40;1.03;;;0.60;;
12385;SDS011;6257;57.634;18.310;2022-07-30T13:26:08;0.63;;;0.50;;
12385;SDS011;6257;57.634;18.310;2022-07-30T13:28:36;1.40;;;0.50;;
12385;SDS011;6257;57.634;18.310;2022-07-30T13:31:03;0.60;;;0.50;;
12385;SDS011;6257;57.634;18.310;2022-07-30T13:33:31;0.87;;;0.50;;
12385;SDS011;6257;57.634;18.310;2022-07-30T13:35:59;1.60;;;0.40;;
12385;SDS011;6257;57.634;18.310;2022-07-30T13:38:27;0.87;;;0.80;;
12385;SDS011;6257;57.634;18.310;2022-07-30T13:40:54;0.43;;;0.40;;
12385;SDS011;6257;57.634;18.310;2022-07-30T13:43:21;1.53;;;0.70;;
12385;SDS011;6257;57.634;18.310;2022-07-30T13:45:49;1.47;;;0.67;;
12385;SDS011;6257;57.634;18.310;2022-07-30T13:48:19;2.80;;;0.60;;
12385;SDS011;6257;57.634;18.310;2022-07-30T13:50:47;0.97;;;0.50;;
12385;SDS011;6257;57.634;18.310;2022-07-30T13:53:14;0.63;;;0.50;;
12385;SDS011;6257;57.634;18.310;2022-07-30T13:55:43;1.73;;;0.70;;
12385;SDS011;6257;57.634;18.310;2022-07-30T13:58:10;0.67;;;0.40;;
12385;SDS011;6257;57.634;18.310;2022-07-30T14:00:38;0.50;;;0.40;;
12385;SDS011;6257;57.634;18.310;2022-07-30T14:03:06;0.60;;;0.60;;
12385;SDS011;6257;57.634;18.310;2022-07-30T14:05:35;1.93;;;0.60;;
12385;SDS011;6257;57.634;18.310;2022-07-30T14:08:04;1.27;;;0.43;;
12385;SDS011;6257;57.634;18.310;2022-07-30T14:10:31;2.77;;;0.70;;
12385;SDS011;6257;57.634;18.310;2022-07-30T14:13:02;0.60;;;0.50;;
12385;SDS011;6257;57.634;18.310;2022-07-30T14:15:30;0.70;;;0.50;;
12385;SDS011;6257;57.634;18.310;2022-07-30T14:17:57;0.70;;;0.60;;
12385;SDS011;6257;57.634;18.310;2022-07-30T14:20:25;0.87;;;0.50;;
12385;SDS011;6257;57.634;18.310;2022-07-30T14:22:52;0.73;;;0.53;;
12385;SDS011;6257;57.634;18.310;2022-07-30T14:25:20;0.50;;;0.50;;
12385;SDS011;6257;57.634;18.310;2022-07-30T14:27:47;1.80;;;0.60;;
12385;SDS011;6257;57.634;18.310;2022-07-30T14:30:15;1.53;;;0.60;;
12385;SDS011;6257;57.634;18.310;2022-07-30T14:32:42;0.43;;;0.43;;
12385;SDS011;6257;57.634;18.310;2022-07-30T14:35:10;0.50;;;0.50;;
12385;SDS011;6257;57.634;18.310;2022-07-30T14:37:37;1.07;;;0.60;;
12385;SDS011;6257;57.634;18.310;2022-07-30T14:40:05;1.33;;;0.50;;
12385;SDS011;6257;57.634;18.310;2022-07-30T14:42:35;0.90;;;0.50;;
12385;SDS011;6257;57.634;18.310;2022-07-30T14:45:04;1.80;;;0.60;;
12385;SDS011;6257;57.634;18.310;2022-07-30T14:47:33;0.53;;;0.50;;
12385;SDS011;6257;57.634;18.310;2022-07-30T14:50:00;2.33;;;0.50;;
12385;SDS011;6257;57.634;18.310;2022-07-30T14:52:27;0.40;;;0.40;;
12385;SDS011;6257;57.634;18.310;2022-07-30T14:54:55;1.37;;;0.60;;
12385;SDS011;6257;57.634;18.310;2022-07-30T14:57:22;3.03;;;0.60;;
12385;SDS011;6257;57.634;18.310;2022-07-30T14:59:49;1.00;;;0.70;;
12385;SDS011;6257;57.634;18.310;2022-07-30T15:02:16;1.17;;;0.40;;
12385;SDS011;6257;57.634;18.310;2022-07-30T15:04:45;0.63;;;0.40;;
12385;SDS011;6257;57.634;18.310;2022-07-30T15:07:12;0.63;;;0.60;;
12385;SDS011;6257;57.634;18.310;2022-07-30T15:09:40;0.87;;;0.50;;
12385;SDS011;6257;57.634;18.310;2022-07-30T15:12:07;0.70;;;0.50;;
12385;SDS011;6257;57.634;18.310;2022-07-30T15:14:35;0.40;;;0.40;;
12385;SDS011;6257;57.634;18.310;2022-07-30T15:17:02;1.43;;;0.60;;
12385;SDS011;6257;57.634;18.310;2022-07-30T15:19:30;1.40;;;0.50;;
12385;SDS011;6257;57.634;18.310;2022-07-30T15:21:59;0.87;;;0.50;;
12385;SDS011;6257;57.634;18.310;2022-07-30T15:24:26;2.30;;;0.50;;
12385;SDS011;6257;57.634;18.310;2022-07-30T15:26:53;0.83;;;0.50;;